Time;durP1;ratioP1;P1;durP2;ratioP2;P2;SDS_P1;SDS_P2;PMS_P1;PMS_P2;Temp;Humidity;BMP_temperature;BMP_pressure;BME280_temperature;BME280_humidity;BME280_pressure;Samples;Min_cycle;Max_cycle;Signal;HPM_P1;HPM_P2
2022/03/09 00:02:17;;;;;;;6.43;4.07;;;2.20;72.60;;;;;;6216445;22;20078;-86
2022/03/09 00:04:43;;;;;;;7.13;4.20;;;2.30;72.80;;;;;;6217385;22;20356;-87
2022/03/09 00:07:09;;;;;;;6.80;4.35;;;;;;;;;;6191835;22;20015;-87
2022/03/09 00:09:35;;;;;;;6.20;4.05;;;;;;;;;;6242323;22;20047;-87
2022/03/09 00:12:02;;;;;;;7.50;4.70;;;;;;;;;;6216433;22;20578;-86
2022/03/09 00:14:29;;;;;;;8.68;5.07;;;;;;;;;;6217192;22;20138;-87
2022/03/09 00:16:55;;;;;;;9.35;4.20;;;;;;;;;;6242129;22;20143;-87
2022/03/09 00:19:21;;;;;;;8.23;4.55;;;;;;;;;;6191852;22;20015;-86
2022/03/09 00:21:47;;;;;;;10.68;4.40;;;;;;;;;;6191651;22;20465;-87
2022/03/09 00:24:14;;;;;;;9.13;4.65;;;;;;;;;;6192382;22;20015;-87
2022/03/09 00:26:41;;;;;;;7.95;4.80;;;;;;;;;;6192315;22;20051;-87
2022/03/09 00:29:07;;;;;;;7.80;4.50;;;;;;;;;;6242142;22;20066;-87
2022/03/09 00:31:33;;;;;;;12.77;4.80;;;;;;;;;;6241325;22;20525;-87
2022/03/09 00:33:59;;;;;;;8.10;4.78;;;;;;;;;;6191224;22;20008;-86
2022/03/09 00:36:26;;;;;;;8.70;4.63;;;;;;;;;;6191635;22;20016;-86
2022/03/09 00:38:52;;;;;;;8.20;4.93;;;;;;;;;;6191215;22;20046;-87
2022/03/09 00:41:18;;;;;;;10.05;4.60;;;;;;;;;;6241500;22;20345;-87
2022/03/09 00:43:44;;;;;;;9.68;4.97;;;;;;;;;;6241442;22;20344;-87
2022/03/09 00:46:10;;;;;;;7.15;4.43;;;;;;;;;;6241215;22;20045;-87
2022/03/09 00:48:36;;;;;;;9.93;4.97;;;;;;;;;;6192292;22;20047;-86
2022/03/09 00:51:03;;;;;;;9.70;5.13;;;;;;;;;;6216515;22;20054;-86
2022/03/09 00:53:29;;;;;;;10.43;4.68;;;;;;;;;;6240818;22;20149;-86
2022/03/09 00:55:55;;;;;;;9.30;4.40;;;;;;;;;;6191762;22;20456;-86
2022/03/09 00:58:21;;;;;;;8.13;4.88;;;;;;;;;;6241686;22;20018;-87
2022/03/09 01:00:47;;;;;;;9.30;5.35;;;;;;;;;;6191102;22;20032;-87
2022/03/09 01:03:13;;;;;;;7.95;5.28;;;;;;;;;;6190918;22;20012;-87
2022/03/09 01:05:39;;;;;;;8.13;4.70;;;;;;;;;;6190864;22;20012;-87
2022/03/09 01:08:05;;;;;;;9.60;5.15;;;;;;;;;;6190621;22;20015;-87
2022/03/09 01:10:31;;;;;;;7.85;5.43;;;;;;;;;;6191192;22;20476;-87
2022/03/09 01:12:58;;;;;;;11.73;5.22;;;;;;;;;;6190644;22;20096;-87
2022/03/09 01:15:24;;;;;;;10.82;4.95;;;;;;;;;;6190523;22;20097;-87
2022/03/09 01:17:50;;;;;;;11.85;5.68;;;;;;;;;;6190090;22;20015;-86
2022/03/09 01:20:16;;;;;;;8.02;5.20;;;;;;;;;;6240957;22;20057;-86
2022/03/09 01:22:42;;;;;;;7.38;4.57;;;;;;;;;;6190812;22;20352;-86
2022/03/09 01:25:09;;;;;;;10.82;5.25;;;;;;;;;;6240828;22;20521;-87
2022/03/09 01:27:36;;;;;;;10.57;4.93;;;;;;;;;;6266371;22;20043;-87
2022/03/09 01:30:02;;;;;;;9.18;5.05;;;;;;;;;;6240318;22;20019;-86
2022/03/09 01:32:28;;;;;;;9.98;5.07;;;;;;;;;;6189759;22;20020;-86
2022/03/09 01:34:55;;;;;;;13.23;5.30;;;;;;;;;;6240699;22;20015;-86
2022/03/09 01:37:21;;;;;;;8.70;5.05;;;;;;;;;;6189566;22;20047;-87
2022/03/09 01:39:47;;;;;;;10.65;5.72;;;;;;;;;;6240508;22;20019;-87
2022/03/09 01:42:13;;;;;;;10.95;5.18;;;;;;;;;;6189475;22;20015;-87
2022/03/09 01:44:39;;;;;;;9.32;4.82;;;;;;;;;;6189312;22;20011;-86
2022/03/09 01:47:06;;;;;;;9.40;5.47;;;;;;;;;;6189053;22;20095;-87
2022/03/09 01:49:31;;;;;;;9.15;5.20;;;2.20;72.90;;;;;;6240365;22;20095;-86
2022/03/09 01:52:00;;;;;;;10.02;5.25;;;0.80;87.80;;;;;;6188850;22;20054;-86
2022/03/09 01:54:27;;;;;;;12.52;5.28;;;0.80;88.00;;;;;;6189535;22;20459;-87
2022/03/09 01:56:54;;;;;;;8.60;5.47;;;0.80;88.90;;;;;;6215869;22;20007;-86
2022/03/09 01:59:19;;;;;;;9.30;5.03;;;0.70;89.10;;;;;;6190936;22;20016;-87
2022/03/09 02:01:46;;;;;;;9.38;5.38;;;0.70;89.90;;;;;;6216109;22;20019;-87
2022/03/09 02:04:12;;;;;;;10.38;5.80;;;0.60;90.00;;;;;;6167904;22;20101;-86
2022/03/09 02:06:39;;;;;;;10.18;5.53;;;0.70;90.60;;;;;;6218193;22;20020;-87
2022/03/09 02:11:51;;;;;;;10.57;5.75;;;0.60;91.10;;;;;;6242721;22;20024;-87
2022/03/09 02:14:40;;;;;;;10.02;5.43;;;0.60;91.50;;;;;;6218663;22;20113;-87
2022/03/09 02:17:11;;;;;;;11.50;5.47;;;0.50;91.50;;;;;;6242528;22;20015;-87
2022/03/09 02:19:39;;;;;;;9.05;5.25;;;0.50;91.60;;;;;;6192982;22;20090;-87
2022/03/09 02:22:10;;;;;;;11.82;5.60;;;0.50;91.80;;;;;;6218237;22;20015;-87
2022/03/09 02:24:36;;;;;;;9.63;5.22;;;0.50;91.90;;;;;;6217412;22;20020;-85
2022/03/09 02:27:02;;;;;;;8.85;5.43;;;0.50;92.10;;;;;;6193228;22;20043;-87
2022/03/09 02:29:28;;;;;;;11.40;6.07;;;0.40;92.30;;;;;;6192837;22;20398;-87
2022/03/09 02:31:53;;;;;;;8.43;5.55;;;0.40;92.80;;;;;;6192063;22;20098;-87
2022/03/09 02:34:19;;;;;;;12.93;6.18;;;0.40;92.80;;;;;;6168338;22;20008;-87
2022/03/09 02:36:45;;;;;;;14.18;6.47;;;0.40;93.10;;;;;;6218374;22;20094;-87
2022/03/09 02:39:10;;;;;;;11.27;6.60;;;0.40;93.30;;;;;;6192637;22;20016;-87
2022/03/09 02:41:36;;;;;;;9.38;5.57;;;0.50;93.70;;;;;;6193098;22;20008;-87
2022/03/09 02:44:02;;;;;;;12.27;6.40;;;0.40;94.10;;;;;;6191873;22;20383;-87
2022/03/09 02:46:29;;;;;;;13.80;6.22;;;0.40;94.10;;;;;;6218336;22;20095;-87
2022/03/09 02:48:55;;;;;;;9.93;6.03;;;0.30;94.30;;;;;;6217675;22;20100;-87
2022/03/09 02:51:21;;;;;;;12.38;6.47;;;0.30;94.60;;;;;;6217653;22;20184;-87
2022/03/09 02:53:48;;;;;;;12.48;6.80;;;0.40;94.80;;;;;;6217711;22;20020;-87
2022/03/09 02:56:15;;;;;;;9.57;5.93;;;0.30;95.40;;;;;;6217025;22;20011;-87
2022/03/09 02:58:43;;;;;;;11.95;6.68;;;0.40;95.90;;;;;;6192034;22;20012;-86
2022/03/09 03:01:10;;;;;;;9.82;6.00;;;0.40;96.00;;;;;;6192664;22;20008;-86
2022/03/09 03:03:35;;;;;;;11.80;6.03;;;0.30;95.80;;;;;;6216183;22;20024;-86
2022/03/09 03:06:01;;;;;;;10.80;6.15;;;0.30;95.50;;;;;;6216605;22;20095;-86
2022/03/09 03:08:27;;;;;;;16.50;6.88;;;0.40;95.60;;;;;;6217439;22;20402;-87
2022/03/09 03:10:53;;;;;;;11.52;5.85;;;0.30;95.60;;;;;;6191444;22;20026;-87
2022/03/09 03:13:18;;;;;;;10.45;6.05;;;0.30;95.80;;;;;;6191554;22;20016;-87
2022/03/09 03:15:44;;;;;;;12.02;6.13;;;0.40;95.70;;;;;;6215469;22;20453;-86
2022/03/09 03:18:10;;;;;;;13.00;6.65;;;0.30;95.50;;;;;;6191351;22;20019;-86
2022/03/09 03:20:35;;;;;;;9.95;6.38;;;0.30;95.80;;;;;;6191827;22;20012;-86
2022/03/09 03:23:01;;;;;;;11.20;6.60;;;0.30;95.90;;;;;;6192254;22;20015;-86
2022/03/09 03:25:27;;;;;;;12.40;6.35;;;0.30;96.10;;;;;;6191516;22;20015;-87
2022/03/09 03:27:52;;;;;;;10.70;5.90;;;0.30;96.20;;;;;;6192368;22;20016;-87
2022/03/09 03:30:18;;;;;;;13.15;6.65;;;0.30;96.40;;;;;;6191391;22;20016;-86
2022/03/09 03:32:44;;;;;;;11.95;6.35;;;0.30;96.60;;;;;;6191580;22;20356;-87
2022/03/09 03:35:10;;;;;;;12.05;6.40;;;0.30;96.70;;;;;;6191192;22;20015;-87
2022/03/09 03:37:36;;;;;;;10.88;6.40;;;0.30;96.50;;;;;;6216107;22;20011;-86
2022/03/09 03:40:03;;;;;;;9.65;5.88;;;0.30;96.50;;;;;;6216758;22;20008;-87
2022/03/09 03:42:29;;;;;;;13.05;6.32;;;0.30;96.30;;;;;;6191552;22;20022;-86
2022/03/09 03:44:54;;;;;;;12.93;5.95;;;0.20;96.30;;;;;;6215639;22;20015;-87
2022/03/09 03:47:20;;;;;;;10.00;6.35;;;0.20;96.20;;;;;;6218156;22;20026;-87
2022/03/09 03:49:46;;;;;;;12.20;6.90;;;0.30;96.40;;;;;;6192216;22;20456;-86
2022/03/09 03:52:12;;;;;;;10.55;6.38;;;0.20;96.40;;;;;;6192107;22;20019;-87
2022/03/09 03:54:38;;;;;;;12.48;6.65;;;0.20;96.50;;;;;;6191679;22;20015;-86
2022/03/09 03:57:04;;;;;;;11.77;6.55;;;0.20;96.80;;;;;;6192082;22;20348;-86
2022/03/09 03:59:30;;;;;;;12.63;5.93;;;0.10;96.90;;;;;;6192821;22;20472;-87
2022/03/09 04:01:55;;;;;;;13.82;6.68;;;0.10;97.00;;;;;;6192266;22;20019;-86
2022/03/09 04:04:21;;;;;;;14.50;6.57;;;0.00;97.40;;;;;;6192328;22;20114;-87
2022/03/09 04:06:47;;;;;;;12.70;6.80;;;0.00;98.00;;;;;;6217078;22;20452;-87
2022/03/09 04:09:12;;;;;;;13.95;6.90;;;0.00;98.80;;;;;;6192000;22;20015;-87
2022/03/09 04:11:38;;;;;;;11.13;6.38;;;0.00;99.30;;;;;;6166759;22;20098;-87
2022/03/09 04:14:06;;;;;;;11.85;7.28;;;0.00;99.30;;;;;;6216192;22;20060;-86
2022/03/09 04:16:32;;;;;;;17.83;7.68;;;0.00;99.60;;;;;;6215238;22;20030;-87
2022/03/09 04:18:58;;;;;;;11.95;6.97;;;0.10;99.80;;;;;;6216328;22;20011;-87
2022/03/09 04:21:24;;;;;;;12.15;6.75;;;0.00;99.90;;;;;;6215346;22;20091;-87
2022/03/09 04:23:50;;;;;;;11.43;6.60;;;-0.10;99.90;;;;;;6216807;22;20015;-87
2022/03/09 04:26:16;;;;;;;15.70;7.47;;;;;;;;;;6190437;22;20015;-86
2022/03/09 04:28:42;;;;;;;13.20;7.72;;;;;;;;;;6240128;22;20053;-86
2022/03/09 04:31:08;;;;;;;15.50;7.25;;;;;;;;;;6240143;22;20016;-87
2022/03/09 04:33:34;;;;;;;13.38;6.60;;;;;;;;;;6241462;22;20012;-87
2022/03/09 04:36:00;;;;;;;12.02;7.35;;;;;;;;;;6189828;22;20082;-87
2022/03/09 04:38:27;;;;;;;12.90;6.97;;;;;;;;;;6240699;22;20015;-86
2022/03/09 04:40:53;;;;;;;12.63;7.07;;;;;;;;;;6189549;22;20408;-87
2022/03/09 04:43:19;;;;;;;12.15;7.13;;;;;;;;;;6189441;22;20444;-87
2022/03/09 04:45:45;;;;;;;12.65;6.97;;;;;;;;;;6189449;22;20070;-87
2022/03/09 04:48:11;;;;;;;11.82;7.05;;;;;;;;;;6189903;22;20102;-87
2022/03/09 04:50:37;;;;;;;12.63;7.50;;;;;;;;;;6240042;22;20031;-87
2022/03/09 04:53:04;;;;;;;15.13;7.68;;;;;;;;;;6189412;22;20058;-86
2022/03/09 04:55:30;;;;;;;13.00;7.28;;;;;;;;;;6189195;22;20448;-87
2022/03/09 04:57:56;;;;;;;13.35;6.57;;;;;;;;;;6194244;22;20058;-87
2022/03/09 05:00:22;;;;;;;15.50;8.38;;;;;;;;;;6239811;22;20461;-87
2022/03/09 05:02:48;;;;;;;14.02;7.28;;;;;;;;;;6189728;22;20028;-87
2022/03/09 05:05:15;;;;;;;12.60;6.78;;;;;;;;;;6189458;22;20400;-87
2022/03/09 05:07:41;;;;;;;15.00;7.70;;;;;;;;;;6190295;22;20027;-87
2022/03/09 05:10:08;;;;;;;13.80;7.57;;;;;;;;;;6241076;22;20018;-87
2022/03/09 05:12:34;;;;;;;15.07;7.22;;;;;;;;;;6190357;22;20015;-87
2022/03/09 05:15:01;;;;;;;11.93;6.88;;;;;;;;;;6239484;22;20008;-87
2022/03/09 05:17:27;;;;;;;14.73;7.50;;;;;;;;;;6190339;22;20106;-87
2022/03/09 05:19:53;;;;;;;12.73;7.93;;;;;;;;;;6188620;22;20468;-87
2022/03/09 05:22:19;;;;;;;12.73;6.63;;;;;;;;;;6187202;22;20091;-87
2022/03/09 05:24:45;;;;;;;17.77;7.57;;;;;;;;;;6186764;22;20108;-87
2022/03/09 05:27:11;;;;;;;15.05;7.32;;;;;;;;;;6187524;22;20223;-87
2022/03/09 05:29:37;;;;;;;11.63;7.57;;;;;;;;;;6240258;22;20022;-87
2022/03/09 05:32:04;;;;;;;12.77;7.10;;;;;;;;;;6188387;22;20055;-87
2022/03/09 05:34:30;;;;;;;20.75;8.35;;;;;;;;;;6190198;22;20123;-87
2022/03/09 05:36:56;;;;;;;11.73;7.35;;;;;;;;;;6238031;22;20098;-87
2022/03/09 05:39:22;;;;;;;17.20;8.27;;;;;;;;;;6239029;22;20007;-87
2022/03/09 05:41:49;;;;;;;13.10;7.65;;;;;;;;;;6188206;22;20023;-87
2022/03/09 05:44:15;;;;;;;13.20;7.70;;;;;;;;;;6188011;22;20328;-87
2022/03/09 05:46:41;;;;;;;12.77;7.03;;;;;;;;;;6188539;22;20015;-87
2022/03/09 05:49:07;;;;;;;14.65;7.78;;;;;;;;;;6189026;22;20069;-87
2022/03/09 05:51:34;;;;;;;12.57;7.32;;;;;;;;;;6239431;22;20391;-87
2022/03/09 05:54:00;;;;;;;17.05;7.20;;;;;;;;;;6189934;22;20012;-87
2022/03/09 05:56:26;;;;;;;14.80;7.10;;;;;;;;;;6240045;22;20019;-87
2022/03/09 05:58:52;;;;;;;15.98;7.97;;;;;;;;;;6190873;22;20019;-87
2022/03/09 06:01:20;;;;;;;13.38;7.57;;;;;;;;;;6191333;22;20020;-87
2022/03/09 06:03:46;;;;;;;13.90;7.82;;;;;;;;;;6215531;22;20224;-87
2022/03/09 06:06:12;;;;;;;13.68;7.90;;;;;;;;;;6190626;22;20051;-87
2022/03/09 06:08:38;;;;;;;15.55;7.72;;;;;;;;;;6240487;22;20016;-87
2022/03/09 06:11:05;;;;;;;17.38;7.95;;;;;;;;;;6241350;22;20042;-86
2022/03/09 06:13:31;;;;;;;15.77;7.63;;;;;;;;;;6190234;22;20386;-87
2022/03/09 06:15:57;;;;;;;13.50;7.43;;;;;;;;;;6215476;22;20012;-87
2022/03/09 06:18:23;;;;;;;16.30;8.05;;;;;;;;;;6190750;22;20051;-87
2022/03/09 06:20:50;;;;;;;14.95;7.63;;;;;;;;;;6241176;22;20209;-87
2022/03/09 06:23:18;;;;;;;14.85;7.93;;;;;;;;;;6214316;22;20026;-88
2022/03/09 06:25:44;;;;;;;16.58;8.07;;;;;;;;;;6215616;22;20051;-88
2022/03/09 06:28:10;;;;;;;14.80;7.28;;;;;;;;;;6189888;22;20023;-88
2022/03/09 06:30:36;;;;;;;13.90;8.30;;;;;;;;;;6191048;22;20016;-88
2022/03/09 06:33:03;;;;;;;14.05;8.52;;;;;;;;;;6189137;22;20145;-88
2022/03/09 06:35:29;;;;;;;14.13;8.07;;;;;;;;;;6189500;22;20015;-86
2022/03/09 06:37:55;;;;;;;15.45;8.80;;;;;;;;;;6238775;22;20012;-85
2022/03/09 06:40:21;;;;;;;14.65;8.45;;;;;;;;;;6190743;22;20016;-85
2022/03/09 06:42:48;;;;;;;13.15;8.23;;;;;;;;;;6191202;22;20024;-85
2022/03/09 06:45:14;;;;;;;15.38;7.53;;;;;;;;;;6217090;22;20015;-84
2022/03/09 06:47:40;;;;;;;14.13;8.43;;;;;;;;;;6190998;22;20038;-84
2022/03/09 06:50:08;;;;;;;19.27;8.32;;;;;;;;;;6193265;22;20019;-87
2022/03/09 06:52:34;;;;;;;12.93;8.15;;;;;;;;;;6246086;22;20016;-86
2022/03/09 06:55:03;;;;;;;15.15;7.20;;;;;;;;;;6194601;22;20508;-85
2022/03/09 06:57:33;;;;;;;16.45;7.63;;;;;;;;;;6219137;22;20042;-86
2022/03/09 06:59:59;;;;;;;18.42;7.93;;;;;;;;;;6242919;22;20388;-86
2022/03/09 07:02:25;;;;;;;18.70;8.15;;;;;;;;;;6243403;22;20470;-87
2022/03/09 07:04:51;;;;;;;13.75;7.68;;;;;;;;;;6192829;22;20647;-87
2022/03/09 07:07:18;;;;;;;12.82;7.88;;;;;;;;;;6242136;22;20051;-88
2022/03/09 07:09:44;;;;;;;15.45;7.65;;;;;;;;;;6241375;22;20012;-88
2022/03/09 07:12:10;;;;;;;15.77;8.68;;;;;;;;;;6240673;22;20023;-88
2022/03/09 07:14:37;;;;;;;13.05;7.50;;;;;;;;;;6217686;22;20015;-88
2022/03/09 07:17:03;;;;;;;13.60;7.88;;;;;;;;;;6189237;22;20012;-88
2022/03/09 07:19:29;;;;;;;11.77;7.30;;;;;;;;;;6215623;22;20061;-88
2022/03/09 07:21:55;;;;;;;15.98;8.05;;;;;;;;;;6240936;22;20087;-88
2022/03/09 07:24:21;;;;;;;13.95;7.72;;;;;;;;;;6191044;22;20020;-88
2022/03/09 07:26:48;;;;;;;13.82;6.97;;;;;;;;;;6242269;22;20051;-87
2022/03/09 07:29:15;;;;;;;16.73;7.25;;;;;;;;;;6191399;22;20012;-88
2022/03/09 07:31:41;;;;;;;14.48;8.00;;;;;;;;;;6216919;22;20012;-88
2022/03/09 07:34:07;;;;;;;12.70;6.93;;;;;;;;;;6192461;22;20411;-87
2022/03/09 07:36:36;;;;;;;14.25;8.15;;;;;;;;;;6192299;22;20039;-87
2022/03/09 07:39:02;;;;;;;13.00;7.53;;;;;;;;;;6242741;22;20008;-87
2022/03/09 07:41:29;;;;;;;14.63;7.43;;;;;;;;;;6191399;22;20022;-87
2022/03/09 07:43:55;;;;;;;14.50;8.13;;;;;;;;;;6215702;22;20415;-87
2022/03/09 07:46:21;;;;;;;12.32;7.32;;;;;;;;;;6193514;22;20054;-87
2022/03/09 07:48:47;;;;;;;17.25;7.68;;;;;;;;;;6191144;22;20019;-87
2022/03/09 07:51:14;;;;;;;14.98;7.63;;;;;;;;;;6191452;22;20073;-87
2022/03/09 07:53:42;;;;;;;14.27;7.90;;;;;;;;;;6242294;22;20016;-88
2022/03/09 07:56:12;;;;;;;16.08;7.47;;;;;;;;;;6191855;22;20085;-88
2022/03/09 07:58:39;;;;;;;12.85;7.35;;;;;;;;;;6241060;22;20011;-88
2022/03/09 08:01:05;;;;;;;12.00;7.18;;;;;;;;;;6191585;22;20376;-88
2022/03/09 08:03:32;;;;;;;14.52;7.75;;;;;;;;;;6241785;22;20016;-88
2022/03/09 08:05:59;;;;;;;10.95;7.05;;;;;;;;;;6241410;22;20019;-87
2022/03/09 08:08:25;;;;;;;13.80;7.68;;;;;;;;;;6191979;22;20064;-87
2022/03/09 08:10:52;;;;;;;12.18;7.35;;;;;;;;;;6192120;22;20134;-88
2022/03/09 08:13:18;;;;;;;15.18;7.45;;;;;;;;;;6241619;22;20081;-88
2022/03/09 08:15:44;;;;;;;12.77;7.10;;;;;;;;;;6193591;22;20039;-89
2022/03/09 08:18:11;;;;;;;13.57;6.82;;;;;;;;;;6241960;22;20082;-88
2022/03/09 08:20:37;;;;;;;13.23;6.53;;;;;;;;;;6216494;22;20029;-89
2022/03/09 08:23:03;;;;;;;14.23;7.30;;;;;;;;;;6191531;22;20071;-88
2022/03/09 08:25:29;;;;;;;12.57;7.72;;;;;;;;;;6216067;22;20098;-88
2022/03/09 08:27:57;;;;;;;9.82;6.40;;;;;;;;;;6190523;22;20441;-88
2022/03/09 08:30:23;;;;;;;12.35;6.82;;;;;;;;;;6194553;22;20015;-89
2022/03/09 08:32:50;;;;;;;11.32;7.10;;;;;;;;;;6243569;22;20016;-88
2022/03/09 08:35:16;;;;;;;14.15;6.80;;;;;;;;;;6194095;22;20020;-87
2022/03/09 08:37:42;;;;;;;13.05;7.18;;;;;;;;;;6217968;22;20038;-90
2022/03/09 08:40:08;;;;;;;13.00;7.68;;;;;;;;;;6241959;22;20016;-89
2022/03/09 08:42:34;;;;;;;14.15;6.88;;;;;;;;;;6192791;22;20251;-88
2022/03/09 08:45:01;;;;;;;12.55;6.90;;;;;;;;;;6191655;22;20015;-88
2022/03/09 08:47:27;;;;;;;12.35;6.43;;;;;;;;;;6191023;22;20517;-88
2022/03/09 08:49:53;;;;;;;10.75;6.68;;;;;;;;;;6242283;22;20043;-88
2022/03/09 08:52:19;;;;;;;16.73;6.63;;;;;;;;;;6191621;22;20038;-88
2022/03/09 08:54:45;;;;;;;12.98;7.53;;;;;;;;;;6191036;22;20015;-89
2022/03/09 08:57:13;;;;;;;12.02;6.97;;;;;;;;;;6191171;22;20018;-88
2022/03/09 08:59:39;;;;;;;11.30;6.88;;;;;;;;;;6238492;22;20016;-89
2022/03/09 09:02:06;;;;;;;13.50;6.07;;;;;;;;;;6191859;22;20015;-86
2022/03/09 09:04:32;;;;;;;12.63;7.03;;;;;;;;;;6244115;22;20012;-87
2022/03/09 09:06:58;;;;;;;12.18;6.50;;;;;;;;;;6239406;22;20027;-87
2022/03/09 09:09:24;;;;;;;11.07;6.82;;;;;;;;;;6191185;22;20019;-89
2022/03/09 09:11:51;;;;;;;10.75;6.65;;;;;;;;;;6189492;22;20085;-90
2022/03/09 09:14:17;;;;;;;11.63;7.20;;;;;;;;;;6190531;22;20456;-88
2022/03/09 09:16:43;;;;;;;11.63;6.72;;;;;;;;;;6239899;22;20030;-85
2022/03/09 09:19:09;;;;;;;10.82;6.25;;;;;;;;;;6215284;22;20086;-87
2022/03/09 09:21:36;;;;;;;13.02;6.93;;;;;;;;;;6190812;22;20012;-87
2022/03/09 09:24:02;;;;;;;15.27;7.65;;;;;;;;;;6190689;22;20392;-87
2022/03/09 09:26:28;;;;;;;13.82;7.05;;;;;;;;;;6189729;22;20011;-86
2022/03/09 09:28:54;;;;;;;15.55;7.07;;;;;;;;;;6191836;22;20016;-85
2022/03/09 09:31:20;;;;;;;13.85;6.82;;;;;;;;;;6190007;22;20397;-86
2022/03/09 09:33:47;;;;;;;13.90;7.07;;;;;;;;;;6189445;22;20592;-90
2022/03/09 09:36:13;;;;;;;11.90;7.05;;;;;;;;;;6188864;22;20047;-86
2022/03/09 09:38:39;;;;;;;13.23;7.32;;;;;;;;;;6191132;22;20015;-86
2022/03/09 09:41:09;;;;;;;14.10;6.75;;;;;;;;;;6192141;22;20007;-88
2022/03/09 09:43:35;;;;;;;13.07;7.13;;;;;;;;;;6193161;23;20016;-88
2022/03/09 09:46:01;;;;;;;9.35;7.00;;;;;;;;;;6130050;23;20044;-88
2022/03/09 09:48:27;;;;;;;14.15;7.85;;;;;;;;;;6158955;23;20013;-89
2022/03/09 09:50:54;;;;;;;13.70;7.35;;;;;;;;;;6233895;23;20035;-89
2022/03/09 09:53:21;;;;;;;12.48;7.65;;;;;;;;;;6182710;23;20016;-88
2022/03/09 09:55:47;;;;;;;12.00;7.07;;;;;;;;;;6183758;23;20012;-88
2022/03/09 09:58:14;;;;;;;13.85;7.72;;;;;;;;;;6184651;23;20142;-88
2022/03/09 10:00:44;;;;;;;14.13;6.85;;;;;;;;;;6182556;23;20091;-89
2022/03/09 10:03:11;;;;;;;10.75;7.03;;;;;;;;;;6184141;23;20518;-89
2022/03/09 10:05:38;;;;;;;11.68;7.32;;;;;;;;;;6184175;23;20413;-89
2022/03/09 10:08:04;;;;;;;11.18;7.10;;;;;;;;;;6184730;23;20095;-88
2022/03/09 10:10:30;;;;;;;12.70;7.40;;;;;;;;;;6182245;23;20016;-90
2022/03/09 10:13:16;;;;;;;12.18;7.82;;;;;;;;;;6184491;23;20503;-90
2022/03/09 10:15:44;;;;;;;11.52;7.25;;;;;;;;;;6188134;23;20388;-89
2022/03/09 10:18:20;;;;;;;12.23;6.85;;;;;;;;;;6184613;23;20047;-87
2022/03/09 10:20:47;;;;;;;10.60;6.43;;;;;;;;;;6184723;23;20012;-88
2022/03/09 10:23:14;;;;;;;12.68;7.55;;;;;;;;;;6184328;23;20016;-87
2022/03/09 10:25:40;;;;;;;10.10;7.00;;;;;;;;;;6187410;23;20525;-88
2022/03/09 10:28:07;;;;;;;11.45;7.28;;;;;;;;;;6188417;23;20098;-88
2022/03/09 10:30:35;;;;;;;13.57;7.10;;;;;;;;;;6188714;23;20068;-88
2022/03/09 10:33:02;;;;;;;13.80;7.63;;;;;;;;;;6186158;23;20460;-89
2022/03/09 10:35:31;;;;;;;12.75;7.13;;;;;;;;;;6186115;23;20016;-88
2022/03/09 10:38:03;;;;;;;12.73;8.02;;;;;;;;;;6185533;23;20437;-88
2022/03/09 10:40:30;;;;;;;12.48;7.75;;;;;;;;;;6186168;23;20012;-89
2022/03/09 10:43:17;;;;;;;13.98;7.80;;;;;;;;;;6184485;23;20028;-88
2022/03/09 10:46:03;;;;;;;10.98;7.32;;;;;;;;;;6165124;23;20099;-88
2022/03/09 10:48:56;;;;;;;12.65;7.55;;;;;;;;;;6187225;23;20013;-89
2022/03/09 10:51:29;;;;;;;12.63;8.27;;;;;;;;;;6186139;23;20012;-89
2022/03/09 10:53:56;;;;;;;14.82;8.00;;;;;;;;;;6186401;23;20063;-89
2022/03/09 10:56:22;;;;;;;13.82;7.68;;;;;;;;;;6185437;22;20012;-89
2022/03/09 10:58:48;;;;;;;16.30;8.10;;;;;;;;;;6186297;23;20015;-89
2022/03/09 11:01:18;;;;;;;14.55;7.90;;;;;;;;;;6185415;23;20378;-89
2022/03/09 11:03:45;;;;;;;12.30;8.13;;;;;;;;;;6235115;23;20453;-89
2022/03/09 11:06:12;;;;;;;15.73;8.45;;;;;;;;;;6186153;22;20534;-89
2022/03/09 11:08:40;;;;;;;14.27;8.38;;;;;;;;;;6184899;23;20461;-88
2022/03/09 11:11:08;;;;;;;12.57;7.97;;;;;;;;;;6187101;23;20357;-89
2022/03/09 11:13:35;;;;;;;13.48;8.48;;;;;;;;;;6186273;23;20559;-88
2022/03/09 11:16:02;;;;;;;13.98;8.38;;;;;;;;;;6185817;23;20020;-88
2022/03/09 11:18:29;;;;;;;15.98;8.45;;;;;;;;;;6188025;23;20083;-89
2022/03/09 11:20:56;;;;;;;13.40;7.53;;;;;;;;;;6184449;23;20023;-89
2022/03/09 11:23:23;;;;;;;15.43;8.43;;;;;;;;;;6186000;23;20252;-89
2022/03/09 11:26:07;;;;;;;12.48;8.32;;;;;;;;;;6185892;23;20051;-89
2022/03/09 11:28:36;;;;;;;13.13;8.45;;;;;;;;;;6183301;23;20460;-88
2022/03/09 11:31:04;;;;;;;12.98;8.50;;;;;;;;;;6184709;23;20023;-88
2022/03/09 11:33:39;;;;;;;14.27;8.82;;;;;;;;;;6185264;23;20345;-89
2022/03/09 11:36:21;;;;;;;13.45;8.30;;;;;;;;;;6184273;23;20023;-88
2022/03/09 11:38:48;;;;;;;11.82;7.65;;;;;;;;;;6185011;23;20578;-88
2022/03/09 11:41:17;;;;;;;14.20;8.40;;;;;;;;;;6185298;23;20008;-89
2022/03/09 11:43:43;;;;;;;27.45;9.07;;;;;;;;;;6184559;23;20016;-89
2022/03/09 11:46:09;;;;;;;13.75;8.85;;;;;;;;;;6182709;22;20557;-90
2022/03/09 11:49:08;;;;;;;13.73;8.60;;;;;;;;;;6184319;23;20078;-90
2022/03/09 11:51:34;;;;;;;12.27;7.95;;;;;;;;;;6117879;23;20012;-89
2022/03/09 11:54:01;;;;;;;12.52;7.93;;;;;;;;;;6186039;23;20043;-90
2022/03/09 11:56:27;;;;;;;13.35;8.07;;;;;;;;;;6186248;22;20018;-90
2022/03/09 11:59:13;;;;;;;14.32;8.50;;;;;;;;;;6184853;23;20014;-90
2022/03/09 12:01:58;;;;;;;13.48;8.25;;;;;;;;;;6182741;23;20016;-89
2022/03/09 12:04:45;;;;;;;13.57;7.88;;;;;;;;;;6185299;23;20405;-89
2022/03/09 12:07:11;;;;;;;13.43;8.68;;;;;;;;;;6184110;23;20044;-89
2022/03/09 12:09:57;;;;;;;12.73;9.02;;;;;;;;;;6182495;23;20034;-89
2022/03/09 12:12:27;;;;;;;11.50;8.25;;;;;;;;;;6184931;23;20083;-90
2022/03/09 12:15:05;;;;;;;12.45;7.90;;;;;;;;;;6183216;23;20124;-91
2022/03/09 12:17:34;;;;;;;11.38;7.93;;;;;;;;;;6182693;23;20016;-89
2022/03/09 12:20:19;;;;;;;12.57;8.55;;;;;;;;;;6182526;23;20341;-89
2022/03/09 12:23:01;;;;;;;12.20;8.20;;;;;;;;;;6183734;23;20051;-89
2022/03/09 12:25:43;;;;;;;13.88;9.07;;;;;;;;;;6185471;23;20087;-89
2022/03/09 12:28:09;;;;;;;;;;;;;;;;;;6234759;22;20080;-90
2022/03/09 12:30:39;;;;;;;15.27;8.73;;;;;;;;;;6216144;23;19916;-89
2022/03/09 12:33:05;;;;;;;15.13;8.90;;;;;;;;;;6185044;23;20111;-88
2022/03/09 12:35:31;;;;;;;10.70;8.32;;;;;;;;;;6184513;23;20070;-91
2022/03/09 12:37:58;;;;;;;12.70;8.05;;;;;;;;;;6188525;23;20051;-90
2022/03/09 12:40:34;;;;;;;11.10;8.40;;;;;;;;;;6187004;23;20009;-90
2022/03/09 12:43:00;;;;;;;13.77;8.38;;;;;;;;;;6183463;23;20019;-90
2022/03/09 12:45:26;;;;;;;14.18;8.50;;;;;;;;;;6185008;23;20024;-89
2022/03/09 12:47:54;;;;;;;13.25;8.13;;;;;;;;;;6182570;23;20027;-89
2022/03/09 12:50:24;;;;;;;13.05;8.93;;;;;;;;;;6184465;23;20464;-86
2022/03/09 12:52:55;;;;;;;11.25;7.90;;;;;;;;;;6183233;23;20058;-87
2022/03/09 12:55:24;;;;;;;11.52;8.73;;;;;;;;;;6184625;23;20020;-87
2022/03/09 12:57:55;;;;;;;11.88;8.43;;;;;;;;;;6186121;23;20012;-88
2022/03/09 13:00:23;;;;;;;10.35;7.72;;;;;;;;;;6233967;23;20073;-86
2022/03/09 13:02:50;;;;;;;11.45;8.35;;;;;;;;;;6184449;23;20027;-87
2022/03/09 13:05:24;;;;;;;10.40;8.15;;;;;;;;;;6185672;23;20020;-87
2022/03/09 13:07:55;;;;;;;10.50;7.72;;;;;;;;;;6183648;23;20016;-88
2022/03/09 13:10:22;;;;;;;13.23;8.27;;;;;;;;;;6183949;23;20020;-87
2022/03/09 13:12:52;;;;;;;11.63;8.43;;;;;;;;;;6184209;23;20007;-88
2022/03/09 13:15:19;;;;;;;10.80;8.32;;;;;;;;;;6182365;23;20054;-88
2022/03/09 13:17:50;;;;;;;13.48;7.97;;;;;;;;;;6183157;23;20544;-89
2022/03/09 13:20:17;;;;;;;10.80;8.50;;;;;;;;;;6183801;23;20012;-90
2022/03/09 13:22:46;;;;;;;14.35;8.10;;;;;;;;;;6185465;23;20086;-88
2022/03/09 13:25:14;;;;;;;14.02;8.27;;;;;;;;;;6183878;23;20016;-89
2022/03/09 13:27:41;;;;;;;13.07;8.27;;;;;;;;;;6157740;23;20095;-87
2022/03/09 13:30:11;;;;;;;13.60;8.55;;;;;;;;;;6185936;23;20012;-89
2022/03/09 13:32:37;;;;;;;13.52;8.90;;;;;;;;;;6183401;23;20012;-89
2022/03/09 13:35:04;;;;;;;16.15;8.52;;;;;;;;;;6182954;23;20016;-90
2022/03/09 13:37:38;;;;;;;15.48;8.60;;;;;;;;;;6185766;23;20094;-88
2022/03/09 13:40:05;;;;;;;14.85;9.05;;;;;;;;;;6183112;23;20015;-89
2022/03/09 13:42:37;;;;;;;11.93;9.07;;;;;;;;;;6184548;23;20696;-89
2022/03/09 13:45:11;;;;;;;13.25;8.50;;;;;;;;;;6234176;23;20016;-89
2022/03/09 13:47:48;;;;;;;11.95;8.25;;;;;;;;;;6184006;23;20011;-89
2022/03/09 13:50:21;;;;;;;12.65;8.45;;;;;;;;;;6184176;23;20016;-89
2022/03/09 13:52:48;;;;;;;13.05;8.55;;;;;;;;;;6185759;23;20497;-87
2022/03/09 13:55:21;;;;;;;11.48;8.35;;;;;;;;;;6185574;23;20481;-86
2022/03/09 13:57:57;;;;;;;13.15;8.57;;;;;;;;;;6184958;23;20016;-86
2022/03/09 14:00:27;;;;;;;14.77;8.93;;;;;;;;;;6184256;23;20040;-87
2022/03/09 14:03:13;;;;;;;12.40;8.60;;;;;;;;;;6183856;23;20023;-86
2022/03/09 14:05:42;;;;;;;13.40;8.77;;;;;;;;;;6184953;23;20016;-86
2022/03/09 14:08:09;;;;;;;12.70;9.05;;;;;;;;;;6185047;23;20019;-90
2022/03/09 14:10:37;;;;;;;15.38;9.45;;;;;;;;;;6191710;23;20020;-89
2022/03/09 14:13:13;;;;;;;14.73;9.20;;;;;;;;;;6186100;23;20009;-89
2022/03/09 14:15:40;;;;;;;11.68;9.07;;;;;;;;;;6185225;23;20028;-87
2022/03/09 14:18:07;;;;;;;15.20;9.32;;;;;;;;;;6184705;23;20018;-87